Time;durP1;ratioP1;P1;durP2;ratioP2;P2;SDS_P1;SDS_P2;PMS_P1;PMS_P2;Temp;Humidity;BMP_temperature;BMP_pressure;BME280_temperature;BME280_humidity;BME280_pressure;Samples;Min_cycle;Max_cycle;Signal;HPM_P1;HPM_P2
2022/01/30 00:02:18;;;;;;;9.90;1.45;;;;;;;4.32;67.72;101784.56;5022097;28;20131;-60
2022/01/30 00:04:44;;;;;;;6.00;1.30;;;;;;;4.27;67.64;101787.69;5022952;28;20122;-59
2022/01/30 00:07:11;;;;;;;10.85;1.40;;;;;;;4.22;67.45;101790.03;5023330;28;20080;-60
2022/01/30 00:09:37;;;;;;;7.43;0.95;;;;;;;4.21;67.39;101790.81;5023272;28;20131;-56
2022/01/30 00:12:05;;;;;;;7.10;1.98;;;;;;;4.18;67.73;101788.97;5022759;28;20468;-59
2022/01/30 00:14:35;;;;;;;4.13;0.90;;;;;;;4.13;67.76;101789.53;5028519;28;20720;-56
2022/01/30 00:17:11;;;;;;;4.43;1.42;;;;;;;4.06;68.07;101784.09;5022107;28;20072;-55
2022/01/30 00:19:44;;;;;;;7.47;0.70;;;;;;;4.05;67.74;101799.41;5025090;28;20324;-58
2022/01/30 00:22:18;;;;;;;10.13;0.88;;;;;;;4.03;67.87;101813.81;5021175;28;20045;-59
2022/01/30 00:24:52;;;;;;;5.65;1.13;;;;;;;3.99;68.06;101807.66;5020289;28;20061;-59
2022/01/30 00:27:27;;;;;;;16.05;1.00;;;;;;;3.95;67.62;101793.78;5021614;28;20482;-60
2022/01/30 00:29:55;;;;;;;9.63;0.70;;;;;;;3.90;68.08;101786.66;5027312;28;20041;-58
2022/01/30 00:32:21;;;;;;;9.93;0.80;;;;;;;3.86;67.72;101790.75;5018248;28;20850;-58
2022/01/30 00:35:09;;;;;;;4.07;0.95;;;;;;;3.83;68.09;101794.03;5022498;28;20580;-57
2022/01/30 00:37:40;;;;;;;10.02;1.35;;;;;;;3.79;67.81;101802.38;5022024;28;20053;-57
2022/01/30 00:40:26;;;;;;;6.05;1.35;;;;;;;3.76;68.66;101804.75;5017443;28;20141;-60
2022/01/30 00:42:53;;;;;;;10.60;0.95;;;;;;;3.74;68.02;101811.47;5022387;28;20546;-58
2022/01/30 00:45:21;;;;;;;8.10;1.02;;;;;;;3.72;68.83;101800.28;5017724;28;20064;-57
2022/01/30 00:47:48;;;;;;;8.07;1.33;;;;;;;3.70;69.02;101794.16;5015957;28;20057;-59
2022/01/30 00:50:15;;;;;;;9.85;1.45;;;;;;;3.68;68.38;101780.41;5015865;28;20075;-59
2022/01/30 00:52:42;;;;;;;8.07;1.55;;;;;;;3.64;69.30;101788.72;5015034;28;20034;-58
2022/01/30 00:55:09;;;;;;;4.53;1.20;;;;;;;3.64;68.87;101793.84;5018305;28;20135;-57
2022/01/30 00:57:35;;;;;;;6.50;1.10;;;;;;;3.57;68.68;101795.19;5022409;28;20064;-59
2022/01/30 01:00:03;;;;;;;9.57;1.27;;;;;;;3.52;68.74;101794.94;5023152;28;20502;-59
2022/01/30 01:02:29;;;;;;;9.57;1.52;;;;;;;3.51;69.52;101797.44;5026425;28;20107;-60
2022/01/30 01:04:58;;;;;;;5.65;1.05;;;;;;;3.48;69.89;101810.97;5024562;28;20111;-57
2022/01/30 01:07:25;;;;;;;11.77;1.48;;;;;;;3.45;69.95;101808.22;5022921;28;20555;-60
2022/01/30 01:10:01;;;;;;;7.97;1.50;;;;;;;3.44;69.19;101806.44;5031582;28;20045;-60
2022/01/30 01:23:43;;;;;;;7.60;1.25;;;;;;;3.31;72.31;101810.88;5022439;28;20037;-58
2022/01/30 01:26:12;;;;;;;9.93;0.98;;;;;;;3.30;72.89;101796.31;5025090;28;20049;-60
2022/01/30 01:28:42;;;;;;;8.18;0.95;;;;;;;3.32;71.18;101794.72;5027499;28;20052;-59
2022/01/30 01:31:10;;;;;;;6.43;2.15;;;;;;;3.33;71.19;101793.94;5030831;28;20102;-61
2022/01/30 01:36:25;;;;;;;8.40;1.25;;;;;;;3.33;72.28;101791.38;5022938;28;20053;-58
2022/01/30 01:38:51;;;;;;;9.55;1.40;;;;;;;3.31;71.80;101790.41;5022065;28;20147;-58
2022/01/30 01:41:21;;;;;;;12.52;1.40;;;;;;;3.30;71.11;101793.75;5021974;28;20099;-60
2022/01/30 01:43:49;;;;;;;10.23;1.40;;;;;;;3.29;71.21;101796.22;5022735;28;20053;-59
2022/01/30 01:46:23;;;;;;;13.02;1.35;;;;;;;3.24;71.52;101803.66;5020547;28;20053;-60
2022/01/30 01:48:51;;;;;;;9.50;1.58;;;;;;;3.21;73.01;101794.13;5020077;28;21561;-55
2022/01/30 01:51:21;;;;;;;2.60;0.63;;;;;;;3.21;72.70;101795.81;5023252;28;20100;-58
2022/01/30 01:53:50;;;;;;;10.10;1.10;;;;;;;3.25;72.10;101800.31;5021031;28;20069;-58
2022/01/30 01:56:18;;;;;;;5.53;1.23;;;;;;;3.22;73.29;101787.34;5025067;28;20112;-59
2022/01/30 01:58:45;;;;;;;9.02;1.58;;;;;;;3.23;73.05;101781.41;5029613;28;20072;-59
2022/01/30 02:01:12;;;;;;;13.60;2.28;;;;;;;3.25;73.16;101790.06;5026293;28;20512;-58
2022/01/30 02:03:39;;;;;;;4.90;0.75;;;;;;;3.24;73.56;101803.66;5029789;28;20099;-58
2022/01/30 02:06:11;;;;;;;6.93;1.08;;;;;;;3.21;73.14;101809.50;5025516;28;20052;-58
2022/01/30 02:08:42;;;;;;;9.70;2.50;;;;;;;3.22;72.87;101825.75;5027397;28;20342;-60
2022/01/30 02:11:18;;;;;;;6.72;1.20;;;;;;;3.21;72.19;101834.25;5029495;28;20127;-59
2022/01/30 02:25:26;;;;;;;8.10;1.23;;;;;;;3.08;72.66;101817.28;5038692;28;20091;-59
2022/01/30 02:27:56;;;;;;;7.43;1.13;;;;;;;3.07;73.14;101834.31;5034956;28;20108;-58
2022/01/30 02:30:28;;;;;;;6.00;1.02;;;;;;;3.06;72.18;101845.38;5024096;28;20045;-59
2022/01/30 02:32:56;;;;;;;9.70;1.25;;;;;;;3.05;71.85;101841.06;5025436;28;20049;-58
2022/01/30 02:35:23;;;;;;;10.27;1.13;;;;;;;3.04;72.62;101843.53;5019440;28;20049;-59
2022/01/30 02:37:52;;;;;;;3.53;1.50;;;;;;;3.01;72.46;101836.53;5023012;28;20448;-59
2022/01/30 02:40:19;;;;;;;9.15;0.93;;;;;;;3.01;72.07;101831.41;5025736;28;20049;-59
2022/01/30 02:42:50;;;;;;;10.38;1.63;;;;;;;2.98;73.09;101841.50;5026362;28;20050;-60
2022/01/30 02:45:18;;;;;;;9.55;2.22;;;;;;;2.97;72.97;101844.81;5022390;28;20460;-59
2022/01/30 02:50:37;;;;;;;15.57;1.35;;;;;;;2.90;72.29;101850.41;5038088;28;20046;-59
2022/01/30 02:53:08;;;;;;;7.70;1.25;;;;;;;2.89;72.64;101840.94;5024347;28;20036;-60
2022/01/30 02:55:35;;;;;;;11.80;1.30;;;;;;;2.85;73.26;101832.22;5026324;28;20045;-59
2022/01/30 02:58:02;;;;;;;6.65;1.15;;;;;;;2.83;72.92;101829.56;5022882;28;20069;-60
2022/01/30 03:00:29;;;;;;;5.72;1.55;;;;;;;2.82;72.37;101832.94;5028454;28;20045;-59
2022/01/30 03:02:55;;;;;;;7.03;1.27;;;;;;;2.77;73.21;101829.19;5025204;28;20076;-60
2022/01/30 03:05:23;;;;;;;8.73;1.00;;;;;;;2.75;73.31;101832.47;5025449;28;20045;-58
2022/01/30 03:07:49;;;;;;;9.93;1.65;;;;;;;2.72;73.47;101833.16;5028990;28;20102;-59
2022/01/30 03:10:16;;;;;;;8.57;1.15;;;;;;;2.68;72.07;101836.34;5025296;28;20037;-59
2022/01/30 03:12:43;;;;;;;4.40;0.90;;;;;;;2.66;72.18;101830.25;5027981;28;20041;-58
2022/01/30 03:15:10;;;;;;;7.15;0.60;;;;;;;2.61;73.03;101823.97;5022707;28;20050;-59
2022/01/30 03:17:37;;;;;;;9.13;1.63;;;;;;;2.60;73.28;101817.97;5027906;28;20734;-57
2022/01/30 03:20:04;;;;;;;5.18;0.68;;;;;;;2.60;72.35;101817.13;5023997;28;20115;-56
2022/01/30 03:22:31;;;;;;;7.65;1.15;;;;;;;2.54;73.87;101808.25;5027092;28;20037;-57
2022/01/30 03:24:57;;;;;;;14.18;1.13;;;;;;;2.49;73.86;101807.13;5029628;28;20045;-58
2022/01/30 03:27:25;;;;;;;13.35;1.67;;;;;;;2.45;74.59;101792.38;5022409;28;20506;-58
2022/01/30 03:30:02;;;;;;;9.20;1.25;;;;;;;2.45;74.70;101800.06;5023990;28;20103;-59
2022/01/30 03:32:30;;;;;;;9.38;1.35;;;;;;;2.44;74.38;101813.66;5023507;28;20115;-60
2022/01/30 03:34:56;;;;;;;6.30;1.30;;;;;;;2.43;72.67;101804.19;5022533;28;20065;-59
2022/01/30 03:37:23;;;;;;;5.47;0.80;;;;;;;2.40;73.64;101810.00;5026891;28;20057;-58
2022/01/30 03:39:49;;;;;;;9.50;2.00;;;;;;;2.38;73.61;101800.50;5023161;28;20460;-56
2022/01/30 03:42:16;;;;;;;8.32;1.08;;;;;;;2.36;73.71;101802.09;5024643;28;20049;-59
2022/01/30 03:44:42;;;;;;;11.30;1.38;;;;;;;2.40;74.60;101798.91;5021601;28;20061;-60
2022/01/30 03:47:09;;;;;;;9.02;1.15;;;;;;;2.40;73.78;101806.59;5022445;28;20076;-58
2022/01/30 03:49:36;;;;;;;6.78;1.90;;;;;;;2.40;74.21;101804.03;5014135;28;20144;-61
2022/01/30 03:52:03;;;;;;;11.68;1.73;;;;;;;2.38;74.01;101800.50;5023610;28;20045;-59
2022/01/30 03:54:30;;;;;;;17.33;2.25;;;;;;;2.39;74.75;101799.69;5018848;28;20400;-61
2022/01/30 03:56:56;;;;;;;9.75;1.73;;;;;;;2.40;73.49;101801.47;5019025;28;20095;-58
2022/01/30 03:59:23;;;;;;;9.55;2.05;;;;;;;2.40;73.05;101798.91;5018681;28;20508;-60
2022/01/30 04:01:49;;;;;;;4.90;1.42;;;;;;;2.39;73.78;101797.13;5016331;28;20069;-60
2022/01/30 04:04:16;;;;;;;9.10;0.80;;;;;;;2.40;74.61;101804.91;5022420;28;20053;-60
2022/01/30 04:06:43;;;;;;;13.75;1.75;;;;;;;2.40;73.10;101804.03;5021561;28;20046;-59
2022/01/30 04:09:10;;;;;;;9.50;1.02;;;;;;;2.40;73.11;101819.38;5025361;28;20056;-57
2022/01/30 04:11:37;;;;;;;6.60;0.88;;;;;;;2.39;73.87;101817.59;5022723;28;20099;-60
2022/01/30 04:14:04;;;;;;;11.55;1.95;;;;;;;2.38;73.29;101831.19;5022678;28;20077;-59
2022/01/30 04:16:31;;;;;;;11.73;1.40;;;;;;;2.37;73.19;101829.41;5017560;28;20185;-60
2022/01/30 04:18:58;;;;;;;11.15;0.85;;;;;;;2.33;73.92;101827.47;5018677;28;20068;-58
2022/01/30 04:21:25;;;;;;;7.55;1.25;;;;;;;2.30;73.42;101831.59;5019294;28;20053;-58
2022/01/30 04:23:52;;;;;;;8.60;3.25;;;;;;;2.28;72.84;101830.63;5021510;28;20640;-59
2022/01/30 04:26:18;;;;;;;11.43;1.42;;;;;;;2.28;73.25;101834.84;5023828;28;20086;-59
2022/01/30 04:28:45;;;;;;;10.40;1.42;;;;;;;2.26;74.38;101842.44;5021574;28;20046;-61
2022/01/30 04:31:13;;;;;;;6.95;1.08;;;;;;;2.25;73.43;101850.91;5021036;28;20050;-61
2022/01/30 04:33:40;;;;;;;13.30;1.73;;;;;;;2.23;73.10;101847.34;5018735;28;20054;-59
2022/01/30 04:36:09;;;;;;;10.48;1.65;;;;;;;2.20;72.56;101852.31;5026762;28;20600;-57
2022/01/30 04:38:58;;;;;;;5.75;0.60;;;;;;;2.16;72.83;101850.38;5023415;28;20045;-57
2022/01/30 04:41:38;;;;;;;7.78;0.77;;;;;;;2.10;74.31;101842.31;5035837;28;20057;-57
2022/01/30 04:58:13;;;;;;;7.82;1.20;;;;;;;1.92;73.29;101861.72;5025233;28;20042;-59
2022/01/30 05:00:56;;;;;;;13.98;1.15;;;;;;;1.89;74.43;101860.66;5025824;28;20045;-59
2022/01/30 05:03:36;;;;;;;6.07;0.90;;;;;;;1.84;73.46;101854.34;5026116;28;20038;-57
2022/01/30 05:06:07;;;;;;;11.00;1.52;;;;;;;1.84;73.67;101851.78;5024988;28;20052;-59
2022/01/30 05:08:34;;;;;;;5.97;0.95;;;;;;;1.85;74.41;101858.66;5024610;28;20537;-58
2022/01/30 05:11:04;;;;;;;8.93;0.80;;;;;;;1.80;73.13;101864.38;5027722;28;20049;-60
2022/01/30 05:13:33;;;;;;;8.32;0.98;;;;;;;1.78;73.62;101878.75;5028264;28;20118;-59
2022/01/30 05:16:00;;;;;;;11.40;1.48;;;;;;;1.77;74.54;101876.09;5026446;28;20678;-59
2022/01/30 05:18:29;;;;;;;8.23;1.15;;;;;;;1.75;74.45;101867.44;5028437;28;20111;-59
2022/01/30 05:20:56;;;;;;;2.83;0.68;;;;;;;1.72;73.75;101865.56;5025531;28;20104;-57
2022/01/30 05:23:23;;;;;;;9.02;0.77;;;;;;;1.72;73.15;101857.03;5023819;28;20555;-57
2022/01/30 05:25:51;;;;;;;12.25;2.28;;;;;;;1.71;73.84;101853.59;5022985;28;20444;-60
2022/01/30 05:28:22;;;;;;;11.52;1.83;;;;;;;1.68;73.36;101855.94;5019723;28;20049;-60
2022/01/30 05:30:50;;;;;;;10.50;1.08;;;;;;;1.67;73.71;101864.41;5025223;28;20045;-59
2022/01/30 05:33:17;;;;;;;12.82;2.10;;;;;;;1.63;72.99;101852.22;5024676;28;20468;-57
2022/01/30 05:35:44;;;;;;;7.00;1.05;;;;;;;1.61;74.50;101851.22;5031317;28;20045;-59
2022/01/30 05:38:10;;;;;;;11.30;2.20;;;;;;;1.57;73.73;101852.72;5025040;28;20479;-58
2022/01/30 05:40:37;;;;;;;7.35;1.02;;;;;;;1.53;73.48;101856.75;5023920;28;20049;-60
2022/01/30 05:43:05;;;;;;;10.65;1.70;;;;;;;1.50;73.11;101860.78;5018490;28;20104;-60
2022/01/30 05:45:37;;;;;;;3.63;0.80;;;;;;;1.46;74.29;101854.59;5026001;28;20053;-59
2022/01/30 05:48:11;;;;;;;5.82;1.05;;;;;;;1.44;73.26;101855.28;5022414;28;20095;-60
2022/01/30 05:50:38;;;;;;;9.93;1.02;;;;;;;1.44;74.39;101835.72;5024252;28;20482;-59
2022/01/30 05:53:05;;;;;;;11.07;1.20;;;;;;;1.41;73.93;101826.22;5024711;28;20100;-60
2022/01/30 05:55:31;;;;;;;11.98;1.58;;;;;;;1.41;74.18;101835.53;5023407;28;20049;-55
2022/01/30 05:57:58;;;;;;;10.13;1.50;;;;;;;1.39;74.23;101842.22;5020865;28;20107;-58
2022/01/30 06:00:26;;;;;;;4.13;0.90;;;;;;;1.35;74.55;101845.38;5021677;28;20060;-58
2022/01/30 06:02:54;;;;;;;4.78;0.68;;;;;;;1.31;73.27;101843.41;5023554;28;20107;-55
2022/01/30 06:05:23;;;;;;;12.35;1.50;;;;;;;1.28;73.78;101839.88;5022327;28;20099;-58
2022/01/30 06:07:56;;;;;;;11.27;1.15;;;;;;;1.26;74.60;101831.25;5023674;28;20053;-61
2022/01/30 06:10:25;;;;;;;11.40;1.42;;;;;;;1.24;74.25;101820.03;5023659;28;20075;-58
2022/01/30 06:12:52;;;;;;;5.63;2.42;;;;;;;1.24;74.99;101822.59;5024135;28;20489;-58
2022/01/30 06:15:19;;;;;;;9.02;1.33;;;;;;;1.23;74.58;101828.47;5026891;28;20096;-59
2022/01/30 06:17:45;;;;;;;10.85;2.25;;;;;;;1.21;74.39;101837.69;5025745;28;20406;-59
2022/01/30 06:20:13;;;;;;;6.53;1.10;;;;;;;1.19;74.08;101854.59;5025433;28;20049;-57
2022/01/30 06:22:40;;;;;;;11.50;1.02;;;;;;;1.15;73.71;101848.38;5021262;28;20130;-57
2022/01/30 06:25:12;;;;;;;14.73;1.42;;;;;;;1.13;74.11;101837.22;5022468;28;20049;-57
2022/01/30 06:27:39;;;;;;;9.50;0.85;;;;;;;1.13;74.36;101829.56;5019319;28;20041;-57
2022/01/30 06:30:08;;;;;;;19.70;2.10;;;;;;;1.14;75.22;101830.41;5019860;28;20117;-55
2022/01/30 06:32:34;;;;;;;8.40;1.33;;;;;;;1.16;74.52;101844.19;5021826;28;21503;-59
2022/01/30 06:35:03;;;;;;;6.53;1.35;;;;;;;1.16;74.86;101849.28;5025765;28;20050;-58
2022/01/30 06:37:32;;;;;;;15.20;1.13;;;;;;;1.18;74.86;101852.81;5025248;28;20508;-60
2022/01/30 06:39:59;;;;;;;10.23;1.10;;;;;;;1.15;74.28;101855.19;5023885;28;20051;-59
2022/01/30 06:42:28;;;;;;;10.88;1.15;;;;;;;1.14;74.83;101855.94;5023642;28;20103;-58
2022/01/30 06:44:55;;;;;;;12.05;1.10;;;;;;;1.15;74.18;101870.50;5021757;28;20493;-60
2022/01/30 06:47:21;;;;;;;7.10;1.45;;;;;;;1.14;75.27;101866.16;5025160;28;20069;-57
2022/01/30 06:49:48;;;;;;;14.20;1.08;;;;;;;1.12;74.16;101865.19;5022398;28;20045;-56
2022/01/30 06:52:15;;;;;;;7.57;1.52;;;;;;;1.11;74.18;101868.50;5024663;28;20077;-54
2022/01/30 06:54:41;;;;;;;12.40;1.33;;;;;;;1.10;74.12;101875.28;5019832;28;21485;-58
2022/01/30 06:57:08;;;;;;;9.23;1.00;;;;;;;1.07;74.34;101874.19;5024361;28;20520;-58
2022/01/30 06:59:35;;;;;;;5.70;0.93;;;;;;;1.06;74.98;101887.75;5022994;28;20477;-57
2022/01/30 07:02:02;;;;;;;8.98;1.60;;;;;;;1.03;74.34;101875.66;5017658;28;20492;-55
2022/01/30 07:04:29;;;;;;;9.75;1.42;;;;;;;1.01;75.05;101870.47;5021850;28;20038;-57
2022/01/30 07:06:56;;;;;;;7.15;1.83;;;;;;;1.02;75.50;101876.47;5024469;28;20053;-56
2022/01/30 07:09:22;;;;;;;11.57;1.25;;;;;;;1.02;74.91;101879.00;5024754;28;20095;-60
2022/01/30 07:11:49;;;;;;;8.23;1.27;;;;;;;1.01;74.63;101870.47;5024424;28;20131;-56
2022/01/30 07:14:15;;;;;;;11.50;1.88;;;;;;;1.01;75.09;101878.13;5026392;28;20045;-58
2022/01/30 07:16:42;;;;;;;17.00;4.90;;;;;;;1.02;74.87;101877.31;5027898;28;20049;-58
2022/01/30 07:19:09;;;;;;;12.48;2.35;;;;;;;0.99;75.24;101871.16;5024236;28;20049;-58
2022/01/30 07:21:35;;;;;;;18.52;3.10;;;;;;;0.97;75.76;101867.59;5018202;28;20049;-60
2022/01/30 07:24:02;;;;;;;30.98;11.82;;;;;;;0.97;75.65;101865.03;5024305;28;20045;-58
2022/01/30 07:26:29;;;;;;;34.60;12.38;;;;;;;0.96;75.28;101866.72;5020556;28;23273;-54
2022/01/30 07:28:55;;;;;;;13.48;6.07;;;;;;;0.98;75.20;101875.34;5023639;28;20072;-58
2022/01/30 07:31:22;;;;;;;15.38;2.55;;;;;;;0.97;75.75;101876.16;5019880;28;20111;-60
2022/01/30 07:33:48;;;;;;;12.25;1.52;;;;;;;0.96;76.16;101874.38;5023031;28;20061;-57
2022/01/30 07:36:15;;;;;;;6.60;1.70;;;;;;;0.95;75.13;101870.03;5023010;28;20045;-57
2022/01/30 07:38:43;;;;;;;12.40;4.25;;;;;;;0.95;75.09;101864.94;5024187;28;20053;-58
2022/01/30 07:41:09;;;;;;;13.88;2.10;;;;;;;0.94;76.22;101872.53;5023139;28;20700;-59
2022/01/30 07:43:36;;;;;;;9.13;1.80;;;;;;;0.91;76.24;101875.72;5023478;28;20049;-56
2022/01/30 07:46:04;;;;;;;10.15;2.10;;;;;;;0.89;75.88;101874.75;5021546;28;20053;-56
2022/01/30 07:48:31;;;;;;;13.57;2.10;;;;;;;0.87;74.92;101876.31;5022423;28;20055;-57
2022/01/30 07:50:58;;;;;;;13.55;2.05;;;;;;;0.86;76.04;101887.31;5015611;28;20667;-57
2022/01/30 07:53:24;;;;;;;14.70;3.42;;;;;;;0.85;75.69;101894.06;5023311;28;20646;-58
2022/01/30 07:55:51;;;;;;;12.43;4.90;;;;;;;0.85;75.78;101895.75;5024686;28;20440;-59
2022/01/30 07:58:18;;;;;;;12.98;2.95;;;;;;;0.85;75.17;101893.19;5023588;28;20081;-55
2022/01/30 08:00:44;;;;;;;17.27;3.85;;;;;;;0.86;75.36;101889.84;5024235;28;20107;-59
2022/01/30 08:03:11;;;;;;;12.93;3.75;;;;;;;0.88;76.04;101881.53;5021959;28;20115;-54
2022/01/30 08:05:39;;;;;;;13.13;3.50;;;;;;;0.92;75.57;101869.88;5021542;28;20059;-58
2022/01/30 08:08:06;;;;;;;13.32;3.63;;;;;;;1.01;76.23;101877.22;5023548;28;20053;-59
2022/01/30 08:10:34;;;;;;;8.68;2.63;;;;;;;1.13;75.60;101875.50;5021403;28;20045;-55
2022/01/30 08:13:01;;;;;;;12.82;3.72;;;;;;;1.31;75.88;101874.06;5025709;28;20058;-60
2022/01/30 08:15:27;;;;;;;16.92;2.67;;;;;;;1.46;75.58;101875.03;5025279;28;20069;-58
2022/01/30 08:17:54;;;;;;;9.07;1.33;;;;;;;1.50;74.56;101871.88;5029340;28;20053;-58
2022/01/30 08:20:25;;;;;;;7.68;2.83;;;;;;;1.49;73.74;101889.66;5027837;28;20115;-61
2022/01/30 08:22:53;;;;;;;7.53;1.80;;;;;;;1.46;73.49;101879.25;5027358;28;20041;-56
2022/01/30 08:25:24;;;;;;;8.27;1.75;;;;;;;1.58;73.64;101884.28;5029781;28;20045;-58
2022/01/30 08:27:53;;;;;;;12.05;2.45;;;;;;;1.88;74.36;101895.53;5028162;28;20052;-59
2022/01/30 08:30:20;;;;;;;11.45;2.55;;;;;;;2.28;75.39;101899.69;5023844;28;20057;-60
2022/01/30 08:32:49;;;;;;;11.57;3.50;;;;;;;2.80;74.28;101898.47;5024051;28;20103;-58
2022/01/30 08:35:17;;;;;;;18.75;3.85;;;;;;;3.31;73.05;101897.09;5015589;28;20050;-57
2022/01/30 08:37:43;;;;;;;11.48;3.42;;;;;;;3.64;72.56;101901.47;5019696;28;20096;-58
2022/01/30 08:40:13;;;;;;;10.82;4.30;;;;;;;3.98;72.86;101895.63;5022456;28;20065;-57
2022/01/30 08:42:40;;;;;;;5.88;2.80;;;;;;;4.51;72.55;101890.72;5020922;28;20057;-55
2022/01/30 08:45:09;;;;;;;15.82;2.75;;;;;;;5.15;71.49;101891.31;5021855;28;20045;-60
2022/01/30 08:47:39;;;;;;;14.48;3.08;;;;;;;5.79;70.76;101895.25;5023341;28;20049;-59
2022/01/30 08:50:07;;;;;;;16.75;5.40;;;;;;;6.38;69.72;101891.88;5020548;28;20105;-58
2022/01/30 08:52:33;;;;;;;13.85;4.15;;;;;;;6.86;68.25;101898.22;5034434;28;20049;-60
2022/01/30 08:55:03;;;;;;;9.38;4.93;;;;;;;7.28;69.17;101897.38;5021081;28;20351;-59
2022/01/30 08:57:30;;;;;;;12.93;3.55;;;;;;;7.69;67.69;101906.69;5026640;28;20382;-56
2022/01/30 08:59:58;;;;;;;8.50;3.10;;;;;;;8.07;67.04;101916.75;5023932;28;20519;-53
2022/01/30 09:02:25;;;;;;;13.93;2.40;;;;;;;8.65;66.89;101917.13;5023285;28;20053;-58
2022/01/30 09:04:52;;;;;;;10.85;2.58;;;;;;;9.31;65.21;101916.72;5027613;28;20473;-57
2022/01/30 09:07:19;;;;;;;11.02;3.78;;;;;;;9.92;63.92;101906.53;5030588;28;20045;-60
2022/01/30 09:09:46;;;;;;;16.48;3.83;;;;;;;10.43;62.46;101898.50;5030982;28;20095;-59
2022/01/30 09:12:13;;;;;;;13.65;3.35;;;;;;;10.90;62.89;101898.91;5027750;28;20045;-60
2022/01/30 09:14:42;;;;;;;13.95;3.65;;;;;;;11.47;61.58;101903.72;5027623;28;20056;-58
2022/01/30 09:17:13;;;;;;;11.95;3.17;;;;;;;12.04;59.45;101898.94;5026230;28;20544;-58
2022/01/30 09:19:46;;;;;;;6.85;2.78;;;;;;;12.52;58.03;101896.44;5030140;28;20081;-59
2022/01/30 09:22:16;;;;;;;11.82;4.03;;;;;;;13.02;56.56;101889.50;5026786;28;20822;-63
2022/01/30 09:24:44;;;;;;;13.77;2.92;;;;;;;13.66;56.86;101895.72;5028750;28;20100;-61
2022/01/30 09:27:10;;;;;;;11.70;2.38;;;;;;;14.31;55.80;101899.97;5025268;28;20042;-63
2022/01/30 09:29:38;;;;;;;11.77;2.75;;;;;;;14.87;53.77;101914.53;5024043;28;20092;-60
2022/01/30 09:32:07;;;;;;;9.50;3.90;;;;;;;15.42;52.52;101908.00;5026412;28;20057;-64
2022/01/30 09:34:34;;;;;;;13.90;4.70;;;;;;;16.01;52.56;101910.06;5023706;28;20041;-62
2022/01/30 09:37:01;;;;;;;9.43;2.95;;;;;;;16.58;50.80;101913.75;5021163;28;20060;-60
2022/01/30 09:39:28;;;;;;;17.95;5.68;;;;;;;17.07;49.73;101910.34;5018798;28;20046;-61
2022/01/30 09:41:55;;;;;;;19.73;6.68;;;;;;;17.56;48.41;101907.69;5025387;28;20771;-61
2022/01/30 09:44:22;;;;;;;23.58;7.15;;;;;;;18.04;47.39;101896.16;5019839;28;20052;-60
2022/01/30 09:46:50;;;;;;;9.55;2.75;;;;;;;18.53;45.75;101896.78;5026040;28;20577;-61
2022/01/30 09:49:22;;;;;;;15.98;5.43;;;;;;;18.81;42.85;101896.63;5021766;28;20077;-62
2022/01/30 09:51:51;;;;;;;23.55;8.20;;;;;;;19.11;43.69;101894.63;5025588;28;20107;-62
2022/01/30 09:54:19;;;;;;;15.75;3.72;;;;;;;19.45;43.68;101888.19;5023513;28;20045;-65
2022/01/30 09:56:45;;;;;;;10.32;2.38;;;;;;;19.82;43.10;101889.53;5023527;28;20490;-61
2022/01/30 09:59:12;;;;;;;13.27;4.90;;;;;;;20.15;41.67;101879.50;5019995;28;20371;-62
2022/01/30 10:01:39;;;;;;;22.42;6.93;;;;;;;20.51;41.55;101882.50;5020831;28;20100;-61
2022/01/30 10:04:06;;;;;;;16.88;3.95;;;;;;;20.83;40.65;101871.47;5021058;28;20132;-62
2022/01/30 10:06:55;;;;;;;23.83;7.63;;;;;;;21.04;39.38;101865.84;5027361;28;20045;-62
2022/01/30 10:09:28;;;;;;;19.90;5.22;;;;;;;21.39;39.20;101862.59;5028413;28;20042;-62
2022/01/30 10:12:14;;;;;;;10.13;2.17;;;;;;;21.59;38.62;101856.94;5020392;28;20058;-62
2022/01/30 10:15:03;;;;;;;18.27;5.47;;;;;;;21.94;38.35;101857.13;5020306;28;20061;-59
2022/01/30 10:17:34;;;;;;;11.23;2.55;;;;;;;22.26;37.35;101860.78;4997799;28;20050;-63
2022/01/30 10:20:23;;;;;;;19.45;5.32;;;;;;;22.49;36.73;101856.75;5022345;28;21359;-63
2022/01/30 10:22:53;;;;;;;;;;;;;;;22.51;37.97;101864.63;5005812;28;20077;-63
2022/01/30 10:25:24;;;;;;;;;;;;;;;22.69;37.28;101865.97;4999977;28;19922;-62
2022/01/30 10:28:12;;;;;;;13.35;4.40;;;;;;;22.95;35.87;101861.81;4999517;28;19984;-61
2022/01/30 10:30:59;;;;;;;12.43;3.60;;;;;;;23.08;36.07;101857.97;5023541;28;20041;-61
2022/01/30 10:33:47;;;;;;;23.40;8.13;;;;;;;23.16;34.96;101854.22;5021173;28;20045;-61
2022/01/30 10:36:20;;;;;;;13.95;3.50;;;;;;;23.38;34.13;101854.53;5038671;28;20076;-62
2022/01/30 10:38:59;;;;;;;10.05;3.05;;;;;;;23.41;33.86;101846.53;5020551;28;20401;-65
2022/01/30 10:41:34;;;;;;;7.72;1.88;;;;;;;23.35;32.51;101849.34;5022156;28;20104;-65
2022/01/30 10:44:04;;;;;;;11.13;3.38;;;;;;;23.02;32.91;101847.53;5022087;28;20107;-61
2022/01/30 10:46:38;;;;;;;16.27;4.40;;;;;;;22.68;33.94;101843.13;5018756;28;20060;-63
2022/01/30 10:49:11;;;;;;;20.65;6.50;;;;;;;22.30;33.56;101849.28;5021648;28;20073;-62
2022/01/30 10:51:38;;;;;;;20.08;6.82;;;;;;;21.82;33.84;101832.75;5023800;28;20489;-59
2022/01/30 10:54:07;;;;;;;14.75;2.88;;;;;;;21.29;34.18;101836.44;5021027;28;20045;-59
2022/01/30 10:56:36;;;;;;;21.92;6.35;;;;;;;20.76;35.11;101824.16;5022615;28;20045;-62
2022/01/30 10:59:06;;;;;;;12.40;2.33;;;;;;;20.22;35.43;101823.28;5021050;28;20559;-62
2022/01/30 11:01:33;;;;;;;11.13;2.28;;;;;;;19.49;35.89;101822.44;5022202;28;20065;-60
2022/01/30 11:04:01;;;;;;;11.55;1.90;;;;;;;18.75;37.44;101822.28;5026190;28;20056;-63
2022/01/30 11:06:29;;;;;;;24.65;7.07;;;;;;;18.10;38.12;101820.13;5024328;28;20042;-63
2022/01/30 11:09:14;;;;;;;41.80;13.30;;;;;;;17.55;37.63;101807.25;5026742;28;20095;-63
2022/01/30 11:11:46;;;;;;;40.85;12.27;;;;;;;17.21;38.92;101797.75;5029798;28;20057;-63
2022/01/30 11:14:16;;;;;;;109.13;42.83;;;;;;;16.78;40.10;101792.53;5025760;28;20061;-63
2022/01/30 11:19:34;;;;;;;10.93;2.83;;;;;;;15.66;41.41;101773.19;5027232;28;19921;-63
2022/01/30 11:22:05;;;;;;;8.15;2.00;;;;;;;15.32;41.75;101767.81;5024170;28;20045;-63
2022/01/30 11:25:01;;;;;;;13.77;3.33;;;;;;;14.79;41.70;101764.88;5030154;28;20508;-61
2022/01/30 11:27:28;;;;;;;26.60;6.32;;;;;;;14.56;42.87;101755.09;5036496;28;20049;-59
2022/01/30 11:29:54;;;;;;;11.05;2.70;;;;;;;14.28;44.03;101744.44;5025634;28;20551;-61
2022/01/30 11:32:22;;;;;;;7.38;2.25;;;;;;;13.88;43.92;101731.91;5026964;28;20100;-63
2022/01/30 11:34:53;;;;;;;12.68;3.03;;;;;;;13.60;44.29;101729.88;5027833;28;20045;-63
2022/01/30 11:37:25;;;;;;;12.05;3.88;;;;;;;13.32;44.35;101721.72;5028804;28;20128;-63
2022/01/30 11:39:52;;;;;;;8.85;2.30;;;;;;;13.03;45.50;101716.97;5024951;28;20126;-61
2022/01/30 11:42:23;;;;;;;9.68;1.92;;;;;;;12.76;46.50;101710.53;5027448;28;20501;-63
2022/01/30 11:45:11;;;;;;;9.25;3.08;;;;;;;12.49;46.97;101704.03;5025308;28;20087;-62
2022/01/30 11:48:01;;;;;;;11.70;2.50;;;;;;;12.24;47.34;101695.88;5035432;28;20061;-61
2022/01/30 11:50:31;;;;;;;13.68;3.22;;;;;;;12.05;46.95;101681.63;5027942;28;20111;-61
2022/01/30 11:53:07;;;;;;;18.58;6.30;;;;;;;11.81;47.28;101668.25;5023903;28;21033;-62
2022/01/30 11:55:49;;;;;;;21.05;4.85;;;;;;;11.66;47.54;101667.97;5027307;28;20542;-61
2022/01/30 11:58:38;;;;;;;22.40;4.20;;;;;;;11.34;47.87;101666.50;5024281;28;20139;-62
2022/01/30 12:01:35;;;;;;;13.68;3.28;;;;;;;11.24;48.42;101662.84;5040598;28;20049;-62
2022/01/30 12:04:06;;;;;;;6.85;1.63;;;;;;;11.13;49.62;101652.25;5024136;28;20128;-62
2022/01/30 12:06:43;;;;;;;14.73;3.00;;;;;;;10.98;49.35;101637.22;5025351;28;20087;-62
2022/01/30 12:09:29;;;;;;;11.10;1.45;;;;;;;10.82;49.43;101637.75;5023749;28;20049;-60
2022/01/30 12:11:58;;;;;;;10.43;1.48;;;;;;;10.83;49.91;101642.09;5024800;28;20104;-61
2022/01/30 12:14:45;;;;;;;6.78;1.25;;;;;;;10.63;49.56;101639.94;5022777;28;20049;-62
2022/01/30 12:17:12;;;;;;;12.75;2.22;;;;;;;10.62;49.97;101639.06;5028496;28;20134;-59
2022/01/30 12:20:00;;;;;;;15.88;2.15;;;;;;;10.62;50.20;101633.00;5028090;28;20041;-62
2022/01/30 12:22:41;;;;;;;11.05;1.17;;;;;;;10.56;49.55;101617.31;5037651;28;20103;-62
2022/01/30 12:25:30;;;;;;;6.07;2.25;;;;;;;10.50;49.96;101611.16;5026545;28;20428;-61